TAY8LL ESSA-EETN
Flight info
| Callsign | TAY8LL |
|---|---|
| Flight time | 0h 45m |
| Altitude | 29000 |
| Route | TOVRI N851 RIKUM DCT DOBAN |
| Aircraft | B738/M-SDE2E3FGHIRWXY/LB1 |
Departure
| Time | 2026-05-05 18:43 |
|---|---|
| Airport | Stockholm-Arlanda Airport (ESSA) |
Arrival
| Time | 2026-05-05 19:28 |
|---|---|
| Airport | Lennart Meri Tallinn Airport (EETN) |
| Time | Latitude | Longitude | Altitude | Speed | Heading |
|---|---|---|---|---|---|
| 2026-05-05 18:01 | 59.63903 | 17.92910 | 109 ft | 0 kts | 207° |
| 2026-05-05 18:24 | 59.63903 | 17.92911 | 109 ft | 0 kts | 207° |
| 2026-05-05 18:25 | 59.63909 | 17.92918 | 109 ft | 2 kts | 207° |
| 2026-05-05 18:25 | 59.63918 | 17.92927 | 109 ft | 2 kts | 207° |
| 2026-05-05 18:25 | 59.63936 | 17.92945 | 108 ft | 2 kts | 207° |
| 2026-05-05 18:25 | 59.63950 | 17.92958 | 108 ft | 2 kts | 207° |
| 2026-05-05 18:26 | 59.63963 | 17.92974 | 108 ft | 2 kts | 231° |
| 2026-05-05 18:26 | 59.63969 | 17.93000 | 107 ft | 2 kts | 260° |
| 2026-05-05 18:26 | 59.63969 | 17.93030 | 107 ft | 1 kts | 290° |
| 2026-05-05 18:26 | 59.63966 | 17.93041 | 107 ft | 1 kts | 301° |
| 2026-05-05 18:27 | 59.63964 | 17.93046 | 107 ft | 0 kts | 297° |
| 2026-05-05 18:31 | 59.63965 | 17.93046 | 107 ft | 0 kts | 297° |
| 2026-05-05 18:31 | 59.63968 | 17.93031 | 107 ft | 1 kts | 297° |
| 2026-05-05 18:31 | 59.63971 | 17.93019 | 107 ft | 0 kts | 297° |
| 2026-05-05 18:31 | 59.63972 | 17.93019 | 107 ft | 0 kts | 297° |
| 2026-05-05 18:32 | 59.63989 | 17.92952 | 107 ft | 11 kts | 297° |
| 2026-05-05 18:32 | 59.64022 | 17.92828 | 109 ft | 0 kts | 298° |
| 2026-05-05 18:33 | 59.64040 | 17.92785 | 109 ft | 9 kts | 328° |
| 2026-05-05 18:33 | 59.64101 | 17.92793 | 109 ft | 8 kts | 346° |
| 2026-05-05 18:34 | 59.64142 | 17.92713 | 110 ft | 8 kts | 299° |
| 2026-05-05 18:34 | 59.64162 | 17.92637 | 111 ft | 7 kts | 298° |
| 2026-05-05 18:34 | 59.64186 | 17.92551 | 112 ft | 6 kts | 298° |
| 2026-05-05 18:34 | 59.64197 | 17.92508 | 113 ft | 6 kts | 298° |
| 2026-05-05 18:35 | 59.64218 | 17.92424 | 113 ft | 7 kts | 297° |
| 2026-05-05 18:35 | 59.64242 | 17.92331 | 114 ft | 8 kts | 297° |
| 2026-05-05 18:35 | 59.64276 | 17.92200 | 114 ft | 12 kts | 298° |
| 2026-05-05 18:35 | 59.64321 | 17.92031 | 114 ft | 12 kts | 296° |
| 2026-05-05 18:36 | 59.64388 | 17.91926 | 113 ft | 12 kts | 3° |
| 2026-05-05 18:36 | 59.64490 | 17.91959 | 113 ft | 16 kts | 12° |
| 2026-05-05 18:36 | 59.64619 | 17.92006 | 112 ft | 21 kts | 14° |
| 2026-05-05 18:36 | 59.64768 | 17.92058 | 111 ft | 21 kts | 10° |
| 2026-05-05 18:37 | 59.64905 | 17.92107 | 110 ft | 18 kts | 12° |
| 2026-05-05 18:37 | 59.65022 | 17.92151 | 109 ft | 15 kts | 10° |
| 2026-05-05 18:37 | 59.65121 | 17.92188 | 108 ft | 13 kts | 12° |
| 2026-05-05 18:37 | 59.65199 | 17.92215 | 108 ft | 10 kts | 11° |
| 2026-05-05 18:38 | 59.65286 | 17.92243 | 108 ft | 16 kts | 9° |
| 2026-05-05 18:38 | 59.65425 | 17.92297 | 108 ft | 23 kts | 5° |
| 2026-05-05 18:38 | 59.65602 | 17.92360 | 108 ft | 25 kts | 11° |
| 2026-05-05 18:38 | 59.65763 | 17.92419 | 109 ft | 21 kts | 9° |
| 2026-05-05 18:39 | 59.65894 | 17.92462 | 110 ft | 17 kts | 9° |
| 2026-05-05 18:39 | 59.65997 | 17.92504 | 112 ft | 12 kts | 12° |
| 2026-05-05 18:39 | 59.66071 | 17.92531 | 113 ft | 8 kts | 12° |
| 2026-05-05 18:39 | 59.66122 | 17.92547 | 113 ft | 6 kts | 8° |
| 2026-05-05 18:40 | 59.66174 | 17.92566 | 114 ft | 8 kts | 13° |
| 2026-05-05 18:40 | 59.66237 | 17.92589 | 115 ft | 9 kts | 9° |
| 2026-05-05 18:40 | 59.66307 | 17.92616 | 116 ft | 11 kts | 11° |
| 2026-05-05 18:40 | 59.66386 | 17.92648 | 118 ft | 12 kts | 12° |
| 2026-05-05 18:41 | 59.66473 | 17.92638 | 119 ft | 13 kts | 348° |
| 2026-05-05 18:41 | 59.66563 | 17.92579 | 120 ft | 11 kts | 341° |
| 2026-05-05 18:41 | 59.66615 | 17.92481 | 120 ft | 9 kts | 277° |
| 2026-05-05 18:41 | 59.66597 | 17.92376 | 119 ft | 7 kts | 230° |
| 2026-05-05 18:42 | 59.66555 | 17.92345 | 119 ft | 5 kts | 188° |
| 2026-05-05 18:42 | 59.66494 | 17.92325 | 118 ft | 25 kts | 189° |
| 2026-05-05 18:42 | 59.66036 | 17.92158 | 112 ft | 108 kts | 191° |
| 2026-05-05 18:42 | 59.65047 | 17.91803 | 138 ft | 173 kts | 191° |
| 2026-05-05 18:43 | 59.63852 | 17.91353 | 990 ft | 174 kts | 191° |
| 2026-05-05 18:43 | 59.62729 | 17.90844 | 1930 ft | 169 kts | 197° |
| 2026-05-05 18:43 | 59.61706 | 17.89805 | 2560 ft | 169 kts | 220° |
| 2026-05-05 18:43 | 59.60792 | 17.88364 | 3209 ft | 171 kts | 221° |
| 2026-05-05 18:44 | 59.59773 | 17.87136 | 3726 ft | 183 kts | 195° |
| 2026-05-05 18:44 | 59.58474 | 17.87353 | 4196 ft | 198 kts | 161° |
| 2026-05-05 18:44 | 59.57177 | 17.88533 | 4686 ft | 214 kts | 149° |
| 2026-05-05 18:44 | 59.55978 | 17.90401 | 5016 ft | 229 kts | 131° |
| 2026-05-05 18:45 | 59.55059 | 17.93094 | 5524 ft | 240 kts | 115° |
| 2026-05-05 18:45 | 59.54572 | 17.96116 | 6376 ft | 237 kts | 96° |
| 2026-05-05 18:45 | 59.54608 | 17.99362 | 7031 ft | 242 kts | 78° |
| 2026-05-05 18:45 | 59.55149 | 18.02559 | 7486 ft | 256 kts | 56° |
| 2026-05-05 18:46 | 59.56350 | 18.05254 | 8031 ft | 267 kts | 39° |
| 2026-05-05 18:46 | 59.57771 | 18.07690 | 8586 ft | 282 kts | 41° |
| 2026-05-05 18:46 | 59.58999 | 18.10794 | 9290 ft | 293 kts | 56° |
| 2026-05-05 18:46 | 59.59977 | 18.14313 | 10101 ft | 298 kts | 59° |
| 2026-05-05 18:47 | 59.60976 | 18.18038 | 10583 ft | 314 kts | 59° |
| 2026-05-05 18:47 | 59.62053 | 18.21854 | 10999 ft | 331 kts | 57° |
| 2026-05-05 18:47 | 59.63232 | 18.25863 | 11649 ft | 341 kts | 56° |
| 2026-05-05 18:47 | 59.64452 | 18.29933 | 12289 ft | 348 kts | 56° |
| 2026-05-05 18:48 | 59.65687 | 18.34030 | 12979 ft | 354 kts | 55° |
| 2026-05-05 18:48 | 59.66947 | 18.38221 | 13747 ft | 359 kts | 55° |
| 2026-05-05 18:48 | 59.68247 | 18.42556 | 14357 ft | 368 kts | 55° |
| 2026-05-05 18:48 | 59.69561 | 18.46945 | 14829 ft | 378 kts | 55° |
| 2026-05-05 18:49 | 59.70904 | 18.51441 | 15444 ft | 384 kts | 55° |
| 2026-05-05 18:49 | 59.72249 | 18.55951 | 15962 ft | 392 kts | 55° |
| 2026-05-05 18:49 | 59.73667 | 18.60715 | 16519 ft | 399 kts | 55° |
| 2026-05-05 18:49 | 59.75086 | 18.65484 | 16973 ft | 409 kts | 56° |
| 2026-05-05 18:50 | 59.76550 | 18.70416 | 17417 ft | 416 kts | 56° |
| 2026-05-05 18:50 | 59.78028 | 18.75406 | 17877 ft | 424 kts | 56° |
| 2026-05-05 18:50 | 59.79382 | 18.79988 | 18285 ft | 431 kts | 56° |
| 2026-05-05 18:50 | 59.80921 | 18.85208 | 18717 ft | 438 kts | 56° |
| 2026-05-05 18:51 | 59.82448 | 18.90402 | 19341 ft | 440 kts | 56° |
| 2026-05-05 18:51 | 59.83990 | 18.95653 | 19847 ft | 445 kts | 56° |
| 2026-05-05 18:51 | 59.85565 | 19.01027 | 20399 ft | 449 kts | 56° |
| 2026-05-05 18:51 | 59.87131 | 19.06384 | 20939 ft | 453 kts | 56° |
| 2026-05-05 18:52 | 59.88713 | 19.11816 | 21564 ft | 453 kts | 56° |
| 2026-05-05 18:52 | 59.90297 | 19.17266 | 21985 ft | 460 kts | 57° |
| 2026-05-05 18:52 | 59.91896 | 19.22781 | 22516 ft | 463 kts | 56° |
| 2026-05-05 18:52 | 59.93497 | 19.28319 | 23127 ft | 463 kts | 56° |
| 2026-05-05 18:53 | 59.95061 | 19.33942 | 23522 ft | 469 kts | 60° |
| 2026-05-05 18:53 | 59.96349 | 19.39966 | 23985 ft | 475 kts | 70° |
| 2026-05-05 18:53 | 59.97162 | 19.46331 | 24494 ft | 476 kts | 81° |
| 2026-05-05 18:53 | 59.97473 | 19.52853 | 24930 ft | 477 kts | 91° |
| 2026-05-05 18:54 | 59.97429 | 19.59449 | 25350 ft | 479 kts | 95° |
| 2026-05-05 18:54 | 59.97230 | 19.66044 | 25844 ft | 479 kts | 98° |
| 2026-05-05 18:54 | 59.96979 | 19.72774 | 26303 ft | 481 kts | 99° |
| 2026-05-05 18:54 | 59.96733 | 19.79482 | 26636 ft | 487 kts | 98° |
| 2026-05-05 18:55 | 59.96510 | 19.86196 | 27133 ft | 488 kts | 98° |
| 2026-05-05 18:55 | 59.96307 | 19.93097 | 27578 ft | 490 kts | 97° |
| 2026-05-05 18:55 | 59.96173 | 19.98196 | 27971 ft | 489 kts | 97° |
| 2026-05-05 18:55 | 59.96011 | 20.04937 | 28570 ft | 486 kts | 96° |
| 2026-05-05 18:56 | 59.95863 | 20.11416 | 28840 ft | 489 kts | 96° |
| 2026-05-05 18:56 | 59.95715 | 20.18155 | 28858 ft | 489 kts | 96° |
| 2026-05-05 18:56 | 59.95425 | 20.31634 | 28861 ft | 485 kts | 96° |
| 2026-05-05 18:57 | 59.95123 | 20.45264 | 28863 ft | 486 kts | 96° |
| 2026-05-05 18:57 | 59.94812 | 20.58735 | 28862 ft | 485 kts | 96° |
| 2026-05-05 18:58 | 59.94494 | 20.72058 | 28863 ft | 483 kts | 97° |
| 2026-05-05 18:58 | 59.94216 | 20.83204 | 28863 ft | 484 kts | 97° |
| 2026-05-05 18:59 | 59.93904 | 20.95178 | 28862 ft | 483 kts | 97° |
| 2026-05-05 18:59 | 59.93565 | 21.07759 | 28863 ft | 484 kts | 97° |
| 2026-05-05 19:00 | 59.93218 | 21.20201 | 28863 ft | 483 kts | 97° |
| 2026-05-05 19:00 | 59.92832 | 21.33516 | 28863 ft | 482 kts | 97° |
| 2026-05-05 19:01 | 59.92433 | 21.46850 | 28863 ft | 483 kts | 97° |
| 2026-05-05 19:01 | 59.92025 | 21.60094 | 28863 ft | 482 kts | 97° |
| 2026-05-05 19:02 | 59.91601 | 21.73427 | 28863 ft | 480 kts | 98° |
| 2026-05-05 19:02 | 59.91183 | 21.86106 | 28864 ft | 481 kts | 98° |
| 2026-05-05 19:03 | 59.90730 | 21.99341 | 28863 ft | 480 kts | 98° |
| 2026-05-05 19:03 | 59.90360 | 22.09919 | 28861 ft | 479 kts | 98° |
| 2026-05-05 19:04 | 59.89897 | 22.22917 | 28860 ft | 480 kts | 98° |
| 2026-05-05 19:04 | 59.89426 | 22.35907 | 28859 ft | 458 kts | 98° |
| 2026-05-05 19:05 | 59.89199 | 22.42178 | 28670 ft | 449 kts | 99° |
| 2026-05-05 19:05 | 59.88970 | 22.48296 | 28312 ft | 449 kts | 99° |
| 2026-05-05 19:05 | 59.88726 | 22.54495 | 27836 ft | 454 kts | 99° |
| 2026-05-05 19:05 | 59.88480 | 22.60730 | 27333 ft | 452 kts | 99° |
| 2026-05-05 19:06 | 59.88234 | 22.66949 | 26827 ft | 450 kts | 100° |
| 2026-05-05 19:06 | 59.87988 | 22.73138 | 26322 ft | 448 kts | 100° |
| 2026-05-05 19:06 | 59.87740 | 22.79321 | 25824 ft | 446 kts | 100° |
| 2026-05-05 19:06 | 59.87494 | 22.85370 | 25332 ft | 444 kts | 100° |
| 2026-05-05 19:07 | 59.87300 | 22.90092 | 24956 ft | 442 kts | 100° |
| 2026-05-05 19:07 | 59.87049 | 22.96129 | 24463 ft | 441 kts | 100° |
| 2026-05-05 19:07 | 59.86792 | 23.02222 | 23959 ft | 439 kts | 100° |
| 2026-05-05 19:07 | 59.86535 | 23.08239 | 23466 ft | 438 kts | 100° |
| 2026-05-05 19:08 | 59.86140 | 23.14084 | 23207 ft | 424 kts | 108° |
| 2026-05-05 19:08 | 59.85888 | 23.16249 | 23106 ft | 419 kts | 111° |
| 2026-05-05 19:08 | 59.85039 | 23.21779 | 22534 ft | 416 kts | 117° |
| 2026-05-05 19:08 | 59.84067 | 23.27049 | 22249 ft | 407 kts | 118° |
| 2026-05-05 19:09 | 59.83211 | 23.31529 | 21955 ft | 402 kts | 118° |
| 2026-05-05 19:09 | 59.82229 | 23.36704 | 21648 ft | 403 kts | 118° |
| 2026-05-05 19:09 | 59.81273 | 23.41884 | 21327 ft | 400 kts | 117° |
| 2026-05-05 19:09 | 59.80335 | 23.47115 | 20780 ft | 402 kts | 117° |
| 2026-05-05 19:10 | 59.79414 | 23.52329 | 20263 ft | 405 kts | 117° |
| 2026-05-05 19:10 | 59.78502 | 23.57594 | 20230 ft | 399 kts | 115° |
| 2026-05-05 19:10 | 59.77642 | 23.62717 | 20085 ft | 388 kts | 115° |
| 2026-05-05 19:10 | 59.76792 | 23.67796 | 19584 ft | 389 kts | 116° |
| 2026-05-05 19:11 | 59.75943 | 23.72828 | 19018 ft | 392 kts | 116° |
| 2026-05-05 19:11 | 59.75065 | 23.78015 | 18443 ft | 394 kts | 116° |
| 2026-05-05 19:11 | 59.74200 | 23.83123 | 17888 ft | 396 kts | 116° |
| 2026-05-05 19:11 | 59.73735 | 23.85863 | 17591 ft | 397 kts | 116° |
| 2026-05-05 19:12 | 59.72857 | 23.91038 | 16881 ft | 402 kts | 115° |
| 2026-05-05 19:12 | 59.71971 | 23.96255 | 16496 ft | 390 kts | 114° |
| 2026-05-05 19:12 | 59.71186 | 24.00927 | 16269 ft | 376 kts | 114° |
| 2026-05-05 19:12 | 59.70600 | 24.04408 | 16057 ft | 368 kts | 115° |
| 2026-05-05 19:13 | 59.69791 | 24.09171 | 15534 ft | 364 kts | 115° |
| 2026-05-05 19:13 | 59.69065 | 24.13392 | 15060 ft | 362 kts | 115° |
| 2026-05-05 19:13 | 59.68267 | 24.18015 | 14585 ft | 357 kts | 115° |
| 2026-05-05 19:13 | 59.67472 | 24.22617 | 14082 ft | 353 kts | 115° |
| 2026-05-05 19:14 | 59.66675 | 24.27214 | 13566 ft | 350 kts | 114° |
| 2026-05-05 19:14 | 59.65898 | 24.31693 | 13132 ft | 344 kts | 113° |
| 2026-05-05 19:14 | 59.65121 | 24.36165 | 12660 ft | 340 kts | 113° |
| 2026-05-05 19:14 | 59.64361 | 24.40532 | 12167 ft | 336 kts | 112° |
| 2026-05-05 19:15 | 59.63607 | 24.44843 | 11702 ft | 331 kts | 112° |
| 2026-05-05 19:15 | 59.62867 | 24.49073 | 11301 ft | 324 kts | 112° |
| 2026-05-05 19:15 | 59.62144 | 24.53210 | 11096 ft | 311 kts | 111° |
| 2026-05-05 19:15 | 59.61443 | 24.57202 | 10697 ft | 306 kts | 111° |
| 2026-05-05 19:16 | 59.60756 | 24.61094 | 10244 ft | 304 kts | 111° |
| 2026-05-05 19:16 | 59.60057 | 24.65042 | 9865 ft | 301 kts | 111° |
| 2026-05-05 19:16 | 59.59377 | 24.68885 | 9538 ft | 298 kts | 111° |
| 2026-05-05 19:16 | 59.58696 | 24.72726 | 9195 ft | 296 kts | 111° |
| 2026-05-05 19:17 | 59.58022 | 24.76528 | 8851 ft | 294 kts | 111° |
| 2026-05-05 19:17 | 59.57351 | 24.80297 | 8500 ft | 292 kts | 111° |
| 2026-05-05 19:17 | 59.56874 | 24.82973 | 8284 ft | 290 kts | 110° |
| 2026-05-05 19:17 | 59.56215 | 24.86666 | 7936 ft | 288 kts | 110° |
| 2026-05-05 19:18 | 59.55549 | 24.90388 | 7599 ft | 286 kts | 110° |
| 2026-05-05 19:18 | 59.54891 | 24.94064 | 7087 ft | 288 kts | 109° |
| 2026-05-05 19:18 | 59.54558 | 24.95919 | 6829 ft | 288 kts | 109° |
| 2026-05-05 19:18 | 59.53890 | 24.99635 | 6327 ft | 287 kts | 109° |
| 2026-05-05 19:19 | 59.53306 | 25.02878 | 5856 ft | 286 kts | 109° |
| 2026-05-05 19:19 | 59.52674 | 25.06377 | 5379 ft | 285 kts | 109° |
| 2026-05-05 19:19 | 59.52017 | 25.10009 | 4854 ft | 284 kts | 109° |
| 2026-05-05 19:19 | 59.51348 | 25.13662 | 4336 ft | 283 kts | 109° |
| 2026-05-05 19:20 | 59.50672 | 25.17302 | 3817 ft | 282 kts | 109° |
| 2026-05-05 19:20 | 59.49995 | 25.20891 | 3302 ft | 281 kts | 109° |
| 2026-05-05 19:20 | 59.49313 | 25.24463 | 2787 ft | 280 kts | 109° |
| 2026-05-05 19:20 | 59.48547 | 25.27929 | 2480 ft | 273 kts | 122° |
| 2026-05-05 19:21 | 59.47255 | 25.30414 | 2460 ft | 249 kts | 153° |
| 2026-05-05 19:21 | 59.45687 | 25.31220 | 2462 ft | 220 kts | 187° |
| 2026-05-05 19:21 | 59.44360 | 25.30379 | 2469 ft | 190 kts | 219° |
| 2026-05-05 19:21 | 59.43348 | 25.28951 | 2475 ft | 170 kts | 223° |
| 2026-05-05 19:22 | 59.42494 | 25.27465 | 2469 ft | 159 kts | 236° |
| 2026-05-05 19:22 | 59.41849 | 25.25728 | 2481 ft | 156 kts | 248° |
| 2026-05-05 19:22 | 59.41513 | 25.23749 | 2479 ft | 151 kts | 263° |
| 2026-05-05 19:22 | 59.41346 | 25.21724 | 2476 ft | 150 kts | 268° |
| 2026-05-05 19:23 | 59.41260 | 25.19684 | 2471 ft | 149 kts | 271° |
| 2026-05-05 19:23 | 59.41224 | 25.17654 | 2404 ft | 151 kts | 272° |
| 2026-05-05 19:23 | 59.41210 | 25.15627 | 2275 ft | 147 kts | 273° |
| 2026-05-05 19:23 | 59.41206 | 25.13634 | 2186 ft | 146 kts | 274° |
| 2026-05-05 19:24 | 59.41208 | 25.11631 | 2177 ft | 147 kts | 274° |
| 2026-05-05 19:24 | 59.41214 | 25.09613 | 2179 ft | 148 kts | 274° |
| 2026-05-05 19:24 | 59.41220 | 25.07621 | 2183 ft | 148 kts | 274° |
| 2026-05-05 19:24 | 59.41228 | 25.05609 | 2107 ft | 141 kts | 274° |
| 2026-05-05 19:25 | 59.41232 | 25.03782 | 1945 ft | 128 kts | 274° |
| 2026-05-05 19:25 | 59.41238 | 25.02079 | 1773 ft | 124 kts | 275° |
| 2026-05-05 19:25 | 59.41247 | 25.00375 | 1586 ft | 125 kts | 274° |
| 2026-05-05 19:25 | 59.41253 | 24.98637 | 1409 ft | 126 kts | 274° |
| 2026-05-05 19:26 | 59.41260 | 24.96937 | 1236 ft | 125 kts | 273° |
| 2026-05-05 19:26 | 59.41271 | 24.95240 | 1054 ft | 125 kts | 272° |
| 2026-05-05 19:26 | 59.41278 | 24.93525 | 882 ft | 126 kts | 272° |
| 2026-05-05 19:26 | 59.41288 | 24.91786 | 705 ft | 126 kts | 271° |
| 2026-05-05 19:27 | 59.41297 | 24.90076 | 525 ft | 127 kts | 272° |
| 2026-05-05 19:27 | 59.41311 | 24.88338 | 346 ft | 128 kts | 270° |
| 2026-05-05 19:27 | 59.41317 | 24.86579 | 168 ft | 131 kts | 270° |
| 2026-05-05 19:27 | 59.41317 | 24.84919 | 140 ft | 111 kts | 269° |
| 2026-05-05 19:28 | 59.41346 | 24.83243 | 141 ft | 122 kts | 267° |
| 2026-05-05 19:28 | 59.41330 | 24.82047 | 140 ft | 55 kts | 271° |
| 2026-05-05 19:28 | 59.41335 | 24.81649 | 140 ft | 21 kts | 268° |
| 2026-05-05 19:28 | 59.41334 | 24.81386 | 140 ft | 17 kts | 271° |
| 2026-05-05 19:29 | 59.41369 | 24.81212 | 140 ft | 13 kts | 339° |
| 2026-05-05 19:29 | 59.41419 | 24.81196 | 140 ft | 0 kts | 356° |
| 2026-05-05 19:29 | 59.41448 | 24.81193 | 140 ft | 12 kts | 358° |
| 2026-05-05 19:29 | 59.41530 | 24.81195 | 140 ft | 9 kts | 0° |
| 2026-05-05 19:30 | 59.41560 | 24.81195 | 140 ft | 5 kts | 0° |
| 2026-05-05 19:30 | 59.41611 | 24.81196 | 140 ft | 8 kts | 354° |
| 2026-05-05 19:30 | 59.41658 | 24.81141 | 140 ft | 7 kts | 292° |
| 2026-05-05 19:30 | 59.41663 | 24.81051 | 140 ft | 9 kts | 267° |
| 2026-05-05 19:31 | 59.41670 | 24.80964 | 140 ft | 5 kts | 322° |
| 2026-05-05 19:31 | 59.41710 | 24.80955 | 140 ft | 4 kts | 359° |
| 2026-05-05 19:31 | 59.41732 | 24.80954 | 140 ft | 1 kts | 359° |
| 2026-05-05 19:31 | 59.41733 | 24.80954 | 140 ft | 0 kts | 359° |